sensor_id;sensor_type;location;lat;lon;timestamp;P1;durP1;ratioP1;P2;durP2;ratioP2
20207;SDS011;10263;48.716;8.760;2023-04-25T00:01:54;4.10;;;1.60;;
20207;SDS011;10263;48.716;8.760;2023-04-25T00:04:24;1.97;;;1.70;;
20207;SDS011;10263;48.716;8.760;2023-04-25T00:06:52;1.83;;;1.60;;
20207;SDS011;10263;48.716;8.760;2023-04-25T00:09:19;2.10;;;1.50;;
20207;SDS011;10263;48.716;8.760;2023-04-25T00:11:46;3.67;;;1.77;;
20207;SDS011;10263;48.716;8.760;2023-04-25T00:14:14;1.37;;;1.27;;
20207;SDS011;10263;48.716;8.760;2023-04-25T00:16:41;1.87;;;1.73;;
20207;SDS011;10263;48.716;8.760;2023-04-25T00:19:09;1.80;;;1.53;;
20207;SDS011;10263;48.716;8.760;2023-04-25T00:21:37;2.17;;;1.57;;
20207;SDS011;10263;48.716;8.760;2023-04-25T00:24:05;2.20;;;2.00;;
20207;SDS011;10263;48.716;8.760;2023-04-25T00:26:33;2.07;;;1.50;;
20207;SDS011;10263;48.716;8.760;2023-04-25T00:29:00;2.80;;;1.90;;
20207;SDS011;10263;48.716;8.760;2023-04-25T00:31:28;2.77;;;1.63;;
20207;SDS011;10263;48.716;8.760;2023-04-25T00:33:55;3.97;;;1.73;;
20207;SDS011;10263;48.716;8.760;2023-04-25T00:36:22;3.47;;;1.80;;
20207;SDS011;10263;48.716;8.760;2023-04-25T00:38:52;4.13;;;2.17;;
20207;SDS011;10263;48.716;8.760;2023-04-25T00:41:20;2.27;;;1.90;;
20207;SDS011;10263;48.716;8.760;2023-04-25T00:43:47;2.00;;;1.80;;
20207;SDS011;10263;48.716;8.760;2023-04-25T00:46:15;2.00;;;1.83;;
20207;SDS011;10263;48.716;8.760;2023-04-25T00:48:42;2.60;;;2.33;;
20207;SDS011;10263;48.716;8.760;2023-04-25T00:51:09;1.80;;;1.70;;
20207;SDS011;10263;48.716;8.760;2023-04-25T00:53:39;2.30;;;2.00;;
20207;SDS011;10263;48.716;8.760;2023-04-25T00:56:08;2.47;;;2.27;;
20207;SDS011;10263;48.716;8.760;2023-04-25T00:58:35;3.97;;;2.33;;
20207;SDS011;10263;48.716;8.760;2023-04-25T01:01:03;3.47;;;1.90;;
20207;SDS011;10263;48.716;8.760;2023-04-25T01:03:31;2.20;;;2.00;;
20207;SDS011;10263;48.716;8.760;2023-04-25T01:06:00;1.80;;;1.67;;
20207;SDS011;10263;48.716;8.760;2023-04-25T01:08:27;3.40;;;2.43;;
20207;SDS011;10263;48.716;8.760;2023-04-25T01:10:55;2.23;;;2.03;;
20207;SDS011;10263;48.716;8.760;2023-04-25T01:13:24;2.60;;;2.30;;
20207;SDS011;10263;48.716;8.760;2023-04-25T01:15:51;2.67;;;2.27;;
20207;SDS011;10263;48.716;8.760;2023-04-25T01:18:18;2.53;;;1.90;;
20207;SDS011;10263;48.716;8.760;2023-04-25T01:20:46;2.20;;;2.00;;
20207;SDS011;10263;48.716;8.760;2023-04-25T01:23:15;2.10;;;1.90;;
20207;SDS011;10263;48.716;8.760;2023-04-25T01:25:43;3.20;;;2.07;;
20207;SDS011;10263;48.716;8.760;2023-04-25T01:28:10;5.33;;;2.20;;
20207;SDS011;10263;48.716;8.760;2023-04-25T01:30:38;3.93;;;2.27;;
20207;SDS011;10263;48.716;8.760;2023-04-25T01:33:06;4.20;;;2.23;;
20207;SDS011;10263;48.716;8.760;2023-04-25T01:35:34;2.30;;;2.10;;
20207;SDS011;10263;48.716;8.760;2023-04-25T01:38:01;2.53;;;2.33;;
20207;SDS011;10263;48.716;8.760;2023-04-25T01:40:30;3.70;;;2.80;;
20207;SDS011;10263;48.716;8.760;2023-04-25T01:42:57;2.70;;;2.33;;
20207;SDS011;10263;48.716;8.760;2023-04-25T01:45:25;2.50;;;2.30;;
20207;SDS011;10263;48.716;8.760;2023-04-25T01:47:52;2.30;;;2.10;;
20207;SDS011;10263;48.716;8.760;2023-04-25T01:50:20;3.47;;;2.63;;
20207;SDS011;10263;48.716;8.760;2023-04-25T01:52:49;2.57;;;2.37;;
20207;SDS011;10263;48.716;8.760;2023-04-25T01:55:18;3.33;;;2.47;;
20207;SDS011;10263;48.716;8.760;2023-04-25T01:57:58;3.27;;;2.20;;
20207;SDS011;10263;48.716;8.760;2023-04-25T02:00:40;3.27;;;2.37;;
20207;SDS011;10263;48.716;8.760;2023-04-25T02:03:07;3.07;;;2.40;;
20207;SDS011;10263;48.716;8.760;2023-04-25T02:05:34;3.00;;;2.70;;
20207;SDS011;10263;48.716;8.760;2023-04-25T02:08:04;3.03;;;2.23;;
20207;SDS011;10263;48.716;8.760;2023-04-25T02:10:31;3.23;;;2.50;;
20207;SDS011;10263;48.716;8.760;2023-04-25T02:13:10;2.83;;;2.30;;
20207;SDS011;10263;48.716;8.760;2023-04-25T02:15:43;2.80;;;2.60;;
20207;SDS011;10263;48.716;8.760;2023-04-25T02:18:15;2.97;;;2.67;;
20207;SDS011;10263;48.716;8.760;2023-04-25T02:20:42;2.73;;;2.50;;
20207;SDS011;10263;48.716;8.760;2023-04-25T02:23:09;2.80;;;2.30;;
20207;SDS011;10263;48.716;8.760;2023-04-25T02:25:36;3.53;;;2.80;;
20207;SDS011;10263;48.716;8.760;2023-04-25T02:28:03;2.67;;;2.47;;
20207;SDS011;10263;48.716;8.760;2023-04-25T02:30:31;2.60;;;2.30;;
20207;SDS011;10263;48.716;8.760;2023-04-25T02:32:58;3.03;;;2.67;;
20207;SDS011;10263;48.716;8.760;2023-04-25T02:35:25;3.83;;;3.00;;
20207;SDS011;10263;48.716;8.760;2023-04-25T02:37:53;3.00;;;2.70;;
20207;SDS011;10263;48.716;8.760;2023-04-25T02:40:20;2.63;;;2.40;;
20207;SDS011;10263;48.716;8.760;2023-04-25T02:42:47;3.03;;;2.43;;
20207;SDS011;10263;48.716;8.760;2023-04-25T02:45:14;2.70;;;2.40;;
20207;SDS011;10263;48.716;8.760;2023-04-25T02:47:42;2.57;;;2.20;;
20207;SDS011;10263;48.716;8.760;2023-04-25T02:50:10;3.33;;;2.53;;
20207;SDS011;10263;48.716;8.760;2023-04-25T02:52:39;3.33;;;2.87;;
20207;SDS011;10263;48.716;8.760;2023-04-25T02:55:12;2.77;;;2.53;;
20207;SDS011;10263;48.716;8.760;2023-04-25T02:57:40;3.67;;;2.37;;
20207;SDS011;10263;48.716;8.760;2023-04-25T03:00:11;5.33;;;3.00;;
20207;SDS011;10263;48.716;8.760;2023-04-25T03:02:39;3.70;;;3.10;;
20207;SDS011;10263;48.716;8.760;2023-04-25T03:05:07;3.27;;;2.37;;
20207;SDS011;10263;48.716;8.760;2023-04-25T03:07:35;2.63;;;2.27;;
20207;SDS011;10263;48.716;8.760;2023-04-25T03:10:04;7.20;;;3.20;;
20207;SDS011;10263;48.716;8.760;2023-04-25T03:12:33;4.37;;;2.83;;
20207;SDS011;10263;48.716;8.760;2023-04-25T03:15:00;4.00;;;2.73;;
20207;SDS011;10263;48.716;8.760;2023-04-25T03:17:27;4.83;;;2.90;;
20207;SDS011;10263;48.716;8.760;2023-04-25T03:19:54;4.03;;;2.67;;
20207;SDS011;10263;48.716;8.760;2023-04-25T03:22:23;3.00;;;2.70;;
20207;SDS011;10263;48.716;8.760;2023-04-25T03:24:50;3.43;;;2.70;;
20207;SDS011;10263;48.716;8.760;2023-04-25T03:27:18;4.43;;;2.90;;
20207;SDS011;10263;48.716;8.760;2023-04-25T03:29:45;4.57;;;3.23;;
20207;SDS011;10263;48.716;8.760;2023-04-25T03:32:12;6.03;;;3.03;;
20207;SDS011;10263;48.716;8.760;2023-04-25T03:34:39;3.10;;;2.80;;
20207;SDS011;10263;48.716;8.760;2023-04-25T03:37:07;4.77;;;2.87;;
20207;SDS011;10263;48.716;8.760;2023-04-25T03:39:38;4.50;;;2.80;;
20207;SDS011;10263;48.716;8.760;2023-04-25T03:42:05;2.53;;;2.33;;
20207;SDS011;10263;48.716;8.760;2023-04-25T03:44:32;3.23;;;2.93;;
20207;SDS011;10263;48.716;8.760;2023-04-25T03:47:00;5.40;;;3.37;;
20207;SDS011;10263;48.716;8.760;2023-04-25T03:49:28;4.43;;;3.27;;
20207;SDS011;10263;48.716;8.760;2023-04-25T03:51:58;5.97;;;3.23;;
20207;SDS011;10263;48.716;8.760;2023-04-25T03:54:28;2.87;;;2.53;;
20207;SDS011;10263;48.716;8.760;2023-04-25T03:57:05;4.13;;;2.70;;
20207;SDS011;10263;48.716;8.760;2023-04-25T03:59:35;3.70;;;3.07;;
20207;SDS011;10263;48.716;8.760;2023-04-25T04:02:02;3.20;;;2.90;;
20207;SDS011;10263;48.716;8.760;2023-04-25T04:04:31;4.23;;;3.07;;
20207;SDS011;10263;48.716;8.760;2023-04-25T04:06:59;3.20;;;2.90;;
20207;SDS011;10263;48.716;8.760;2023-04-25T04:09:29;2.97;;;2.77;;
20207;SDS011;10263;48.716;8.760;2023-04-25T04:11:58;3.97;;;2.70;;
20207;SDS011;10263;48.716;8.760;2023-04-25T04:14:30;3.10;;;2.60;;
20207;SDS011;10263;48.716;8.760;2023-04-25T04:16:56;4.07;;;3.30;;
20207;SDS011;10263;48.716;8.760;2023-04-25T04:19:26;3.57;;;3.00;;
20207;SDS011;10263;48.716;8.760;2023-04-25T04:22:03;3.40;;;3.00;;
20207;SDS011;10263;48.716;8.760;2023-04-25T04:24:31;4.33;;;3.30;;
20207;SDS011;10263;48.716;8.760;2023-04-25T04:27:04;5.63;;;3.17;;
20207;SDS011;10263;48.716;8.760;2023-04-25T04:29:45;4.77;;;2.83;;
20207;SDS011;10263;48.716;8.760;2023-04-25T04:32:35;4.43;;;3.20;;
20207;SDS011;10263;48.716;8.760;2023-04-25T04:35:03;5.17;;;3.27;;
20207;SDS011;10263;48.716;8.760;2023-04-25T04:37:32;3.53;;;3.23;;
20207;SDS011;10263;48.716;8.760;2023-04-25T04:40:00;4.30;;;3.30;;
20207;SDS011;10263;48.716;8.760;2023-04-25T04:42:49;3.20;;;2.90;;
20207;SDS011;10263;48.716;8.760;2023-04-25T04:45:42;3.37;;;3.03;;
20207;SDS011;10263;48.716;8.760;2023-04-25T04:48:28;3.57;;;3.20;;
20207;SDS011;10263;48.716;8.760;2023-04-25T04:51:17;3.33;;;2.97;;
20207;SDS011;10263;48.716;8.760;2023-04-25T04:54:24;5.33;;;3.07;;
20207;SDS011;10263;48.716;8.760;2023-04-25T04:57:09;5.83;;;3.40;;
20207;SDS011;10263;48.716;8.760;2023-04-25T04:59:55;5.87;;;3.20;;
20207;SDS011;10263;48.716;8.760;2023-04-25T05:02:42;2.93;;;2.63;;
20207;SDS011;10263;48.716;8.760;2023-04-25T05:05:26;5.00;;;2.77;;
20207;SDS011;10263;48.716;8.760;2023-04-25T05:08:13;3.20;;;2.83;;
20207;SDS011;10263;48.716;8.760;2023-04-25T05:10:51;2.90;;;2.53;;
20207;SDS011;10263;48.716;8.760;2023-04-25T05:13:33;3.30;;;2.67;;
20207;SDS011;10263;48.716;8.760;2023-04-25T05:16:10;3.67;;;2.87;;
20207;SDS011;10263;48.716;8.760;2023-04-25T05:19:14;4.00;;;2.43;;
20207;SDS011;10263;48.716;8.760;2023-04-25T05:21:48;4.17;;;2.90;;
20207;SDS011;10263;48.716;8.760;2023-04-25T05:24:35;3.53;;;2.70;;
20207;SDS011;10263;48.716;8.760;2023-04-25T05:27:13;6.17;;;3.23;;
20207;SDS011;10263;48.716;8.760;2023-04-25T05:29:58;2.73;;;2.53;;
20207;SDS011;10263;48.716;8.760;2023-04-25T05:32:31;4.63;;;3.20;;
20207;SDS011;10263;48.716;8.760;2023-04-25T05:34:59;5.77;;;3.10;;
20207;SDS011;10263;48.716;8.760;2023-04-25T05:37:36;3.40;;;3.10;;
20207;SDS011;10263;48.716;8.760;2023-04-25T05:40:11;4.60;;;3.33;;
20207;SDS011;10263;48.716;8.760;2023-04-25T05:43:00;3.13;;;2.90;;
20207;SDS011;10263;48.716;8.760;2023-04-25T05:45:41;4.57;;;3.70;;
20207;SDS011;10263;48.716;8.760;2023-04-25T05:48:40;3.73;;;3.23;;
20207;SDS011;10263;48.716;8.760;2023-04-25T05:51:18;3.37;;;3.07;;
20207;SDS011;10263;48.716;8.760;2023-04-25T05:53:45;4.27;;;3.30;;
20207;SDS011;10263;48.716;8.760;2023-04-25T05:56:13;3.80;;;3.17;;
20207;SDS011;10263;48.716;8.760;2023-04-25T05:58:40;3.30;;;3.00;;
20207;SDS011;10263;48.716;8.760;2023-04-25T06:01:09;5.40;;;3.77;;
20207;SDS011;10263;48.716;8.760;2023-04-25T06:03:37;4.10;;;3.30;;
20207;SDS011;10263;48.716;8.760;2023-04-25T06:06:04;4.53;;;3.73;;
20207;SDS011;10263;48.716;8.760;2023-04-25T06:08:32;4.50;;;3.03;;
20207;SDS011;10263;48.716;8.760;2023-04-25T06:10:59;4.20;;;3.53;;
20207;SDS011;10263;48.716;8.760;2023-04-25T06:13:26;3.53;;;3.23;;
20207;SDS011;10263;48.716;8.760;2023-04-25T06:15:54;3.57;;;3.17;;
20207;SDS011;10263;48.716;8.760;2023-04-25T06:18:21;3.20;;;2.87;;
20207;SDS011;10263;48.716;8.760;2023-04-25T06:20:48;3.50;;;3.00;;
20207;SDS011;10263;48.716;8.760;2023-04-25T06:23:17;3.37;;;3.07;;
20207;SDS011;10263;48.716;8.760;2023-04-25T06:25:51;3.47;;;3.17;;
20207;SDS011;10263;48.716;8.760;2023-04-25T06:28:19;3.70;;;2.70;;
20207;SDS011;10263;48.716;8.760;2023-04-25T06:30:47;3.30;;;3.00;;
20207;SDS011;10263;48.716;8.760;2023-04-25T06:33:17;3.20;;;2.90;;
20207;SDS011;10263;48.716;8.760;2023-04-25T06:35:44;3.47;;;3.00;;
20207;SDS011;10263;48.716;8.760;2023-04-25T06:38:13;3.80;;;2.23;;
20207;SDS011;10263;48.716;8.760;2023-04-25T06:40:44;3.90;;;2.23;;
20207;SDS011;10263;48.716;8.760;2023-04-25T06:43:12;2.93;;;2.20;;
20207;SDS011;10263;48.716;8.760;2023-04-25T06:45:49;2.63;;;2.30;;
20207;SDS011;10263;48.716;8.760;2023-04-25T06:48:16;2.73;;;2.50;;
20207;SDS011;10263;48.716;8.760;2023-04-25T06:50:43;2.63;;;1.90;;
20207;SDS011;10263;48.716;8.760;2023-04-25T06:53:11;3.00;;;2.00;;
20207;SDS011;10263;48.716;8.760;2023-04-25T06:55:39;2.30;;;2.10;;
20207;SDS011;10263;48.716;8.760;2023-04-25T06:58:27;3.70;;;2.40;;
20207;SDS011;10263;48.716;8.760;2023-04-25T07:01:14;2.60;;;2.40;;
20207;SDS011;10263;48.716;8.760;2023-04-25T07:03:41;2.50;;;2.10;;
20207;SDS011;10263;48.716;8.760;2023-04-25T07:06:14;2.30;;;2.10;;
20207;SDS011;10263;48.716;8.760;2023-04-25T07:08:41;2.77;;;2.37;;
20207;SDS011;10263;48.716;8.760;2023-04-25T07:11:07;2.03;;;1.90;;
20207;SDS011;10263;48.716;8.760;2023-04-25T07:13:37;2.53;;;2.03;;
20207;SDS011;10263;48.716;8.760;2023-04-25T07:16:04;3.13;;;2.00;;
20207;SDS011;10263;48.716;8.760;2023-04-25T07:18:33;2.20;;;2.00;;
20207;SDS011;10263;48.716;8.760;2023-04-25T07:21:00;3.10;;;2.40;;
20207;SDS011;10263;48.716;8.760;2023-04-25T07:23:28;3.20;;;2.90;;
20207;SDS011;10263;48.716;8.760;2023-04-25T07:25:58;3.20;;;2.70;;
20207;SDS011;10263;48.716;8.760;2023-04-25T07:28:26;3.30;;;3.00;;
20207;SDS011;10263;48.716;8.760;2023-04-25T07:30:54;4.07;;;3.20;;
20207;SDS011;10263;48.716;8.760;2023-04-25T07:33:23;3.80;;;3.27;;
20207;SDS011;10263;48.716;8.760;2023-04-25T07:35:50;3.20;;;2.87;;
20207;SDS011;10263;48.716;8.760;2023-04-25T07:38:18;4.43;;;3.57;;
20207;SDS011;10263;48.716;8.760;2023-04-25T07:40:45;3.03;;;2.80;;
20207;SDS011;10263;48.716;8.760;2023-04-25T07:43:13;2.93;;;2.53;;
20207;SDS011;10263;48.716;8.760;2023-04-25T07:45:48;3.60;;;2.53;;
20207;SDS011;10263;48.716;8.760;2023-04-25T07:48:19;3.23;;;2.93;;
20207;SDS011;10263;48.716;8.760;2023-04-25T07:50:48;3.33;;;2.93;;
20207;SDS011;10263;48.716;8.760;2023-04-25T07:53:15;3.33;;;3.03;;
20207;SDS011;10263;48.716;8.760;2023-04-25T07:55:49;3.83;;;2.43;;
20207;SDS011;10263;48.716;8.760;2023-04-25T07:58:17;3.60;;;3.00;;
20207;SDS011;10263;48.716;8.760;2023-04-25T08:00:48;4.33;;;3.30;;
20207;SDS011;10263;48.716;8.760;2023-04-25T08:03:42;5.40;;;2.90;;
20207;SDS011;10263;48.716;8.760;2023-04-25T08:06:15;4.67;;;3.10;;
20207;SDS011;10263;48.716;8.760;2023-04-25T08:08:52;3.57;;;3.07;;
20207;SDS011;10263;48.716;8.760;2023-04-25T08:11:21;3.70;;;2.87;;
20207;SDS011;10263;48.716;8.760;2023-04-25T08:13:48;4.13;;;2.63;;
20207;SDS011;10263;48.716;8.760;2023-04-25T08:16:16;4.60;;;3.30;;
20207;SDS011;10263;48.716;8.760;2023-04-25T08:18:44;3.53;;;3.23;;
20207;SDS011;10263;48.716;8.760;2023-04-25T08:21:11;2.90;;;2.70;;
20207;SDS011;10263;48.716;8.760;2023-04-25T08:23:38;5.47;;;2.93;;
20207;SDS011;10263;48.716;8.760;2023-04-25T08:26:20;3.70;;;3.00;;
20207;SDS011;10263;48.716;8.760;2023-04-25T08:28:48;4.43;;;3.40;;
20207;SDS011;10263;48.716;8.760;2023-04-25T08:31:15;3.40;;;3.10;;
20207;SDS011;10263;48.716;8.760;2023-04-25T08:33:52;2.93;;;2.70;;
20207;SDS011;10263;48.716;8.760;2023-04-25T08:36:27;2.97;;;2.67;;
20207;SDS011;10263;48.716;8.760;2023-04-25T08:38:54;3.17;;;2.17;;
20207;SDS011;10263;48.716;8.760;2023-04-25T08:41:21;3.03;;;2.27;;
20207;SDS011;10263;48.716;8.760;2023-04-25T08:43:48;4.20;;;2.40;;
20207;SDS011;10263;48.716;8.760;2023-04-25T08:46:18;4.47;;;2.20;;
20207;SDS011;10263;48.716;8.760;2023-04-25T08:49:09;2.73;;;2.00;;
20207;SDS011;10263;48.716;8.760;2023-04-25T08:51:40;2.40;;;1.90;;
20207;SDS011;10263;48.716;8.760;2023-04-25T08:54:13;3.60;;;1.83;;
20207;SDS011;10263;48.716;8.760;2023-04-25T08:56:41;1.60;;;1.50;;
20207;SDS011;10263;48.716;8.760;2023-04-25T08:59:12;2.37;;;1.90;;
20207;SDS011;10263;48.716;8.760;2023-04-25T09:01:41;1.40;;;1.13;;
20207;SDS011;10263;48.716;8.760;2023-04-25T09:04:09;1.20;;;1.00;;
20207;SDS011;10263;48.716;8.760;2023-04-25T09:06:38;1.13;;;0.90;;
20207;SDS011;10263;48.716;8.760;2023-04-25T09:09:06;0.83;;;0.80;;
20207;SDS011;10263;48.716;8.760;2023-04-25T09:11:33;1.00;;;0.80;;
20207;SDS011;10263;48.716;8.760;2023-04-25T09:14:11;0.90;;;0.90;;
20207;SDS011;10263;48.716;8.760;2023-04-25T09:17:03;1.73;;;0.50;;
20207;SDS011;10263;48.716;8.760;2023-04-25T09:19:46;0.67;;;0.67;;
20207;SDS011;10263;48.716;8.760;2023-04-25T09:22:26;1.80;;;0.60;;
20207;SDS011;10263;48.716;8.760;2023-04-25T09:24:53;1.07;;;0.60;;
20207;SDS011;10263;48.716;8.760;2023-04-25T09:27:24;0.90;;;0.90;;
20207;SDS011;10263;48.716;8.760;2023-04-25T09:30:01;1.67;;;1.00;;
20207;SDS011;10263;48.716;8.760;2023-04-25T09:32:44;1.67;;;0.80;;
20207;SDS011;10263;48.716;8.760;2023-04-25T09:35:13;1.50;;;0.67;;
20207;SDS011;10263;48.716;8.760;2023-04-25T09:37:50;0.60;;;0.60;;
20207;SDS011;10263;48.716;8.760;2023-04-25T09:40:41;1.17;;;0.60;;
20207;SDS011;10263;48.716;8.760;2023-04-25T09:43:19;0.60;;;0.60;;
20207;SDS011;10263;48.716;8.760;2023-04-25T09:45:48;0.40;;;0.40;;
20207;SDS011;10263;48.716;8.760;2023-04-25T09:48:17;0.70;;;0.60;;
20207;SDS011;10263;48.716;8.760;2023-04-25T09:50:49;0.40;;;0.40;;
20207;SDS011;10263;48.716;8.760;2023-04-25T09:53:30;1.20;;;0.77;;
20207;SDS011;10263;48.716;8.760;2023-04-25T09:56:08;0.50;;;0.50;;
20207;SDS011;10263;48.716;8.760;2023-04-25T09:58:37;0.60;;;0.60;;
20207;SDS011;10263;48.716;8.760;2023-04-25T10:01:06;1.63;;;0.63;;
20207;SDS011;10263;48.716;8.760;2023-04-25T10:03:43;1.77;;;0.80;;
20207;SDS011;10263;48.716;8.760;2023-04-25T10:06:35;0.50;;;0.50;;
20207;SDS011;10263;48.716;8.760;2023-04-25T10:09:04;1.23;;;0.50;;
20207;SDS011;10263;48.716;8.760;2023-04-25T10:11:33;0.70;;;0.60;;
20207;SDS011;10263;48.716;8.760;2023-04-25T10:14:00;0.90;;;0.50;;
20207;SDS011;10263;48.716;8.760;2023-04-25T10:19:29;0.90;;;0.40;;
20207;SDS011;10263;48.716;8.760;2023-04-25T10:21:58;0.40;;;0.40;;
20207;SDS011;10263;48.716;8.760;2023-04-25T10:24:31;0.53;;;0.53;;
20207;SDS011;10263;48.716;8.760;2023-04-25T10:26:58;0.60;;;0.60;;
20207;SDS011;10263;48.716;8.760;2023-04-25T10:29:29;0.63;;;0.60;;
20207;SDS011;10263;48.716;8.760;2023-04-25T10:31:56;0.50;;;0.50;;
20207;SDS011;10263;48.716;8.760;2023-04-25T10:34:24;0.67;;;0.60;;
20207;SDS011;10263;48.716;8.760;2023-04-25T10:37:05;0.50;;;0.50;;
20207;SDS011;10263;48.716;8.760;2023-04-25T10:39:35;1.60;;;0.40;;
20207;SDS011;10263;48.716;8.760;2023-04-25T10:42:04;0.30;;;0.30;;
20207;SDS011;10263;48.716;8.760;2023-04-25T10:44:31;0.40;;;0.30;;
20207;SDS011;10263;48.716;8.760;2023-04-25T10:46:59;0.30;;;0.30;;
20207;SDS011;10263;48.716;8.760;2023-04-25T10:49:30;0.47;;;0.47;;
20207;SDS011;10263;48.716;8.760;2023-04-25T10:52:16;0.40;;;0.40;;
20207;SDS011;10263;48.716;8.760;2023-04-25T10:54:47;0.40;;;0.40;;
20207;SDS011;10263;48.716;8.760;2023-04-25T10:57:27;0.40;;;0.30;;
20207;SDS011;10263;48.716;8.760;2023-04-25T10:59:57;2.43;;;0.50;;
20207;SDS011;10263;48.716;8.760;2023-04-25T11:02:26;0.97;;;0.30;;
20207;SDS011;10263;48.716;8.760;2023-04-25T11:04:54;0.50;;;0.50;;
20207;SDS011;10263;48.716;8.760;2023-04-25T11:07:26;0.50;;;0.50;;
20207;SDS011;10263;48.716;8.760;2023-04-25T11:10:01;2.00;;;1.27;;
20207;SDS011;10263;48.716;8.760;2023-04-25T11:12:29;0.80;;;0.80;;
20207;SDS011;10263;48.716;8.760;2023-04-25T11:15:00;1.57;;;0.70;;
20207;SDS011;10263;48.716;8.760;2023-04-25T11:17:28;1.10;;;0.80;;
20207;SDS011;10263;48.716;8.760;2023-04-25T11:19:55;1.43;;;0.87;;
20207;SDS011;10263;48.716;8.760;2023-04-25T11:22:23;1.70;;;1.40;;
20207;SDS011;10263;48.716;8.760;2023-04-25T11:24:52;2.50;;;1.70;;
20207;SDS011;10263;48.716;8.760;2023-04-25T11:27:19;1.63;;;1.53;;
20207;SDS011;10263;48.716;8.760;2023-04-25T11:29:47;1.97;;;1.57;;
20207;SDS011;10263;48.716;8.760;2023-04-25T11:32:14;2.37;;;2.03;;
20207;SDS011;10263;48.716;8.760;2023-04-25T11:34:43;1.57;;;1.47;;
20207;SDS011;10263;48.716;8.760;2023-04-25T11:37:10;1.60;;;1.50;;
20207;SDS011;10263;48.716;8.760;2023-04-25T11:39:39;1.80;;;1.60;;
20207;SDS011;10263;48.716;8.760;2023-04-25T11:42:11;2.03;;;1.90;;
20207;SDS011;10263;48.716;8.760;2023-04-25T11:44:37;1.67;;;1.53;;
20207;SDS011;10263;48.716;8.760;2023-04-25T11:47:05;1.53;;;1.37;;
20207;SDS011;10263;48.716;8.760;2023-04-25T11:49:32;1.50;;;1.40;;
20207;SDS011;10263;48.716;8.760;2023-04-25T11:52:00;1.40;;;1.30;;
20207;SDS011;10263;48.716;8.760;2023-04-25T11:54:27;2.50;;;1.60;;
20207;SDS011;10263;48.716;8.760;2023-04-25T11:56:55;1.70;;;1.50;;
20207;SDS011;10263;48.716;8.760;2023-04-25T11:59:23;1.70;;;1.60;;
20207;SDS011;10263;48.716;8.760;2023-04-25T12:01:51;1.53;;;1.43;;
20207;SDS011;10263;48.716;8.760;2023-04-25T12:04:20;2.53;;;1.70;;
20207;SDS011;10263;48.716;8.760;2023-04-25T12:06:48;1.90;;;1.80;;
20207;SDS011;10263;48.716;8.760;2023-04-25T12:09:16;1.73;;;1.40;;
20207;SDS011;10263;48.716;8.760;2023-04-25T12:11:47;1.70;;;1.60;;
20207;SDS011;10263;48.716;8.760;2023-04-25T12:14:21;3.97;;;1.40;;
20207;SDS011;10263;48.716;8.760;2023-04-25T12:16:50;1.70;;;1.60;;
20207;SDS011;10263;48.716;8.760;2023-04-25T12:19:19;1.40;;;1.30;;
20207;SDS011;10263;48.716;8.760;2023-04-25T12:21:46;1.60;;;1.50;;
20207;SDS011;10263;48.716;8.760;2023-04-25T12:24:14;1.63;;;1.53;;
20207;SDS011;10263;48.716;8.760;2023-04-25T12:26:47;1.63;;;1.30;;
20207;SDS011;10263;48.716;8.760;2023-04-25T12:29:15;2.30;;;1.40;;
20207;SDS011;10263;48.716;8.760;2023-04-25T12:31:44;1.30;;;1.20;;
20207;SDS011;10263;48.716;8.760;2023-04-25T12:34:11;1.30;;;1.20;;
20207;SDS011;10263;48.716;8.760;2023-04-25T12:36:38;1.27;;;1.17;;
20207;SDS011;10263;48.716;8.760;2023-04-25T12:39:05;1.10;;;1.00;;
20207;SDS011;10263;48.716;8.760;2023-04-25T12:41:33;0.80;;;0.80;;
20207;SDS011;10263;48.716;8.760;2023-04-25T12:44:00;2.30;;;1.07;;
20207;SDS011;10263;48.716;8.760;2023-04-25T12:46:27;0.83;;;0.83;;
20207;SDS011;10263;48.716;8.760;2023-04-25T12:48:55;1.10;;;1.00;;
20207;SDS011;10263;48.716;8.760;2023-04-25T12:51:22;1.30;;;1.20;;
20207;SDS011;10263;48.716;8.760;2023-04-25T12:53:50;1.00;;;0.90;;
20207;SDS011;10263;48.716;8.760;2023-04-25T12:56:18;1.40;;;1.30;;
20207;SDS011;10263;48.716;8.760;2023-04-25T12:58:45;1.40;;;1.10;;
20207;SDS011;10263;48.716;8.760;2023-04-25T13:01:13;1.17;;;1.10;;
20207;SDS011;10263;48.716;8.760;2023-04-25T13:03:40;1.50;;;1.20;;
20207;SDS011;10263;48.716;8.760;2023-04-25T13:06:08;2.20;;;1.50;;
20207;SDS011;10263;48.716;8.760;2023-04-25T13:08:35;1.80;;;1.70;;
20207;SDS011;10263;48.716;8.760;2023-04-25T13:11:03;2.50;;;2.30;;
20207;SDS011;10263;48.716;8.760;2023-04-25T13:13:30;2.07;;;1.87;;
20207;SDS011;10263;48.716;8.760;2023-04-25T13:15:59;1.97;;;1.77;;
20207;SDS011;10263;48.716;8.760;2023-04-25T13:18:27;3.57;;;1.60;;
20207;SDS011;10263;48.716;8.760;2023-04-25T13:20:54;2.13;;;1.93;;
20207;SDS011;10263;48.716;8.760;2023-04-25T13:23:22;2.60;;;2.40;;
20207;SDS011;10263;48.716;8.760;2023-04-25T13:25:49;2.77;;;2.37;;
20207;SDS011;10263;48.716;8.760;2023-04-25T13:28:16;2.90;;;2.53;;
20207;SDS011;10263;48.716;8.760;2023-04-25T13:30:43;2.43;;;2.23;;
20207;SDS011;10263;48.716;8.760;2023-04-25T13:33:11;2.47;;;2.27;;
20207;SDS011;10263;48.716;8.760;2023-04-25T13:35:38;2.73;;;2.33;;
20207;SDS011;10263;48.716;8.760;2023-04-25T13:38:05;2.97;;;2.40;;
20207;SDS011;10263;48.716;8.760;2023-04-25T13:40:33;2.43;;;2.03;;
20207;SDS011;10263;48.716;8.760;2023-04-25T13:43:00;2.07;;;1.87;;
20207;SDS011;10263;48.716;8.760;2023-04-25T13:45:27;2.60;;;2.00;;
20207;SDS011;10263;48.716;8.760;2023-04-25T13:47:54;2.50;;;2.30;;
20207;SDS011;10263;48.716;8.760;2023-04-25T13:50:21;2.20;;;2.00;;
20207;SDS011;10263;48.716;8.760;2023-04-25T13:52:47;2.37;;;2.10;;
20207;SDS011;10263;48.716;8.760;2023-04-25T13:55:14;3.97;;;2.20;;
20207;SDS011;10263;48.716;8.760;2023-04-25T13:57:43;2.93;;;1.70;;
20207;SDS011;10263;48.716;8.760;2023-04-25T14:00:10;1.60;;;1.37;;
20207;SDS011;10263;48.716;8.760;2023-04-25T14:02:38;1.80;;;1.57;;
20207;SDS011;10263;48.716;8.760;2023-04-25T14:05:05;1.70;;;1.60;;
20207;SDS011;10263;48.716;8.760;2023-04-25T14:07:33;2.97;;;1.30;;
20207;SDS011;10263;48.716;8.760;2023-04-25T14:10:00;1.30;;;1.20;;
20207;SDS011;10263;48.716;8.760;2023-04-25T14:12:27;1.40;;;1.30;;
20207;SDS011;10263;48.716;8.760;2023-04-25T14:14:55;1.10;;;0.90;;
20207;SDS011;10263;48.716;8.760;2023-04-25T14:17:21;1.13;;;1.00;;
20207;SDS011;10263;48.716;8.760;2023-04-25T14:19:49;1.10;;;1.00;;
20207;SDS011;10263;48.716;8.760;2023-04-25T14:22:16;1.20;;;1.10;;
20207;SDS011;10263;48.716;8.760;2023-04-25T14:24:43;1.87;;;1.20;;
20207;SDS011;10263;48.716;8.760;2023-04-25T14:27:10;1.37;;;1.10;;
20207;SDS011;10263;48.716;8.760;2023-04-25T14:29:37;2.17;;;1.20;;
20207;SDS011;10263;48.716;8.760;2023-04-25T14:32:06;1.30;;;1.20;;
20207;SDS011;10263;48.716;8.760;2023-04-25T14:34:33;3.37;;;1.60;;
20207;SDS011;10263;48.716;8.760;2023-04-25T14:37:00;2.03;;;1.50;;
20207;SDS011;10263;48.716;8.760;2023-04-25T14:39:27;2.07;;;1.40;;
20207;SDS011;10263;48.716;8.760;2023-04-25T14:41:54;1.67;;;1.30;;
20207;SDS011;10263;48.716;8.760;2023-04-25T14:44:21;1.50;;;1.40;;
20207;SDS011;10263;48.716;8.760;2023-04-25T14:46:48;2.00;;;1.80;;
20207;SDS011;10263;48.716;8.760;2023-04-25T14:49:18;1.60;;;1.50;;
20207;SDS011;10263;48.716;8.760;2023-04-25T14:51:45;1.50;;;1.40;;
20207;SDS011;10263;48.716;8.760;2023-04-25T14:54:11;1.73;;;1.50;;
20207;SDS011;10263;48.716;8.760;2023-04-25T14:56:38;1.80;;;1.60;;
20207;SDS011;10263;48.716;8.760;2023-04-25T14:59:05;1.30;;;1.20;;
20207;SDS011;10263;48.716;8.760;2023-04-25T15:01:32;4.00;;;1.60;;
20207;SDS011;10263;48.716;8.760;2023-04-25T15:03:59;2.33;;;1.70;;
20207;SDS011;10263;48.716;8.760;2023-04-25T15:06:28;3.77;;;1.97;;
20207;SDS011;10263;48.716;8.760;2023-04-25T15:08:55;1.80;;;1.70;;
20207;SDS011;10263;48.716;8.760;2023-04-25T15:11:22;2.00;;;1.80;;